Time;durP1;ratioP1;P1;durP2;ratioP2;P2;SDS_P1;SDS_P2;PMS_P1;PMS_P2;Temp;Humidity;BMP_temperature;BMP_pressure;BME280_temperature;BME280_humidity;BME280_pressure;Samples;Min_cycle;Max_cycle;Signal;HPM_P1;HPM_P2
2022/08/09 00:02:31;;;;;;;0.60;0.60;;;;;;;;;;5048737;28;20201;-83
2022/08/09 00:05:00;;;;;;;0.63;0.63;;;;;;;;;;5035448;28;20260;-84
2022/08/09 00:07:49;;;;;;;0.30;0.30;;;;;;;;;;5035286;28;20205;-84
2022/08/09 00:10:23;;;;;;;0.40;0.40;;;;;;;;;;5048785;28;20194;-84
2022/08/09 00:12:52;;;;;;;0.40;0.40;;;;;;;;;;5040927;28;20204;-83
2022/08/09 00:15:21;;;;;;;1.40;1.30;;;;;;;;;;5057527;28;20530;-83
2022/08/09 00:18:09;;;;;;;0.53;0.53;;;;;;;;;;5044236;28;20210;-83
2022/08/09 00:20:42;;;;;;;0.40;0.40;;;;;;;;;;5039278;28;20249;-83
2022/08/09 00:23:17;;;;;;;0.40;0.40;;;;;;;;;;5039639;28;20202;-83
2022/08/09 00:26:07;;;;;;;0.40;0.40;;;;;;;;;;5039963;28;20238;-84
2022/08/09 00:28:38;;;;;;;0.63;0.63;;;;;;;;;;5051827;28;20206;-84
2022/08/09 00:31:07;;;;;;;0.50;0.50;;;;;;;;;;5050992;28;20206;-83
2022/08/09 00:33:56;;;;;;;0.70;0.70;;;;;;;;;;5060303;28;20259;-83
2022/08/09 00:36:26;;;;;;;0.87;0.87;;;;;;;;;;5058793;28;20226;-83
2022/08/09 00:38:58;;;;;;;0.50;0.50;;;;;;;;;;5073708;28;20278;-83
2022/08/09 00:41:28;;;;;;;0.40;0.40;;;;;;;;;;5090192;28;20216;-83
2022/08/09 00:44:16;;;;;;;0.63;0.63;;;;;;;;;;5085398;28;20203;-84
2022/08/09 00:46:54;;;;;;;0.40;0.40;;;;;;;;;;5088778;28;20210;-84
2022/08/09 00:49:33;;;;;;;0.40;0.40;;;;;;;;;;5067898;28;20205;-83
2022/08/09 00:52:04;;;;;;;1.37;1.27;;;;;;;;;;5076527;28;20244;-84
2022/08/09 00:55:20;;;;;;;0.30;0.30;;;;;;;;;;5072025;28;20254;-83
2022/08/09 00:58:11;;;;;;;0.40;0.40;;;;;;;;;;5082211;28;20225;-83
2022/08/09 01:00:53;;;;;;;0.40;0.40;;;;;;;;;;5076988;28;20212;-84
2022/08/09 01:03:31;;;;;;;0.83;0.83;;;;;;;;;;5064553;28;20204;-83
2022/08/09 01:06:13;;;;;;;0.40;0.40;;;;;;;;;;5077261;28;20251;-84
2022/08/09 01:08:49;;;;;;;0.50;0.50;;;;;;;;;;5077767;28;20269;-84
2022/08/09 01:11:24;;;;;;;0.30;0.30;;;;;;;;;;5072212;28;20189;-84
2022/08/09 01:13:56;;;;;;;0.93;0.93;;;;;;;;;;5076585;28;20199;-83
2022/08/09 01:16:30;;;;;;;1.37;1.33;;;;;;;;;;5058472;28;20207;-84
2022/08/09 01:19:01;;;;;;;1.87;1.77;;;;;;;;;;5086849;28;20216;-83
2022/08/09 01:21:39;;;;;;;0.87;0.87;;;;;;;;;;5075555;28;20221;-86
2022/08/09 01:24:17;;;;;;;0.30;0.30;;;;;;;;;;5075910;28;20212;-86
2022/08/09 01:26:49;;;;;;;0.87;0.87;;;;;;;;;;5075643;28;20205;-86
2022/08/09 01:29:26;;;;;;;0.30;0.30;;;;;;;;;;5070512;28;20250;-86
2022/08/09 01:32:09;;;;;;;0.40;0.40;;;;;;;;;;5084643;28;20189;-86
2022/08/09 01:35:01;;;;;;;1.80;1.67;;;;;;;;;;5077043;28;20239;-86
2022/08/09 01:37:52;;;;;;;0.40;0.40;;;;;;;;;;5060637;28;20225;-86
2022/08/09 01:40:40;;;;;;;2.00;0.70;;;;;;;;;;5077960;28;20209;-86
2022/08/09 01:43:10;;;;;;;1.57;1.47;;;;;;;;;;5077057;28;20205;-86
2022/08/09 01:45:39;;;;;;;1.07;1.00;;;;;;;;;;5093181;28;20280;-86
2022/08/09 01:48:16;;;;;;;1.00;0.97;;;;;;;;;;5083394;28;20205;-86
2022/08/09 01:50:48;;;;;;;0.30;0.30;;;;;;;;;;5090752;28;20197;-86
2022/08/09 01:53:23;;;;;;;1.13;1.13;;;;;;;;;;5074269;28;20206;-86
2022/08/09 01:56:09;;;;;;;0.43;0.43;;;;;;;;;;5070392;28;20236;-86
2022/08/09 01:58:39;;;;;;;0.90;0.90;;;;;;;;;;5057578;28;20203;-86
2022/08/09 02:01:08;;;;;;;0.43;0.43;;;;;;;;;;5081419;28;20212;-86
2022/08/09 02:03:45;;;;;;;1.57;0.80;;;;;;;;;;5095326;28;20272;-86
2022/08/09 02:06:15;;;;;;;1.90;1.80;;;;;;;;;;5077650;28;20212;-86
2022/08/09 02:08:45;;;;;;;0.77;0.77;;;;;;;;;;5074152;28;20190;-86
2022/08/09 02:11:28;;;;;;;0.50;0.50;;;;;;;;;;5060109;28;20210;-86
2022/08/09 02:14:13;;;;;;;1.80;0.70;;;;;;;;;;5057299;28;20198;-86
2022/08/09 02:16:53;;;;;;;1.03;1.03;;;;;;;;;;5069109;28;20205;-86
2022/08/09 02:19:26;;;;;;;0.93;0.93;;;;;;;;;;5077257;28;20254;-86
2022/08/09 02:22:10;;;;;;;0.40;0.40;;;;;;;;;;5070651;28;20210;-86
2022/08/09 02:24:40;;;;;;;0.50;0.50;;;;;;;;;;5067613;28;20209;-85
2022/08/09 02:27:10;;;;;;;0.30;0.30;;;;;;;;;;5064620;28;20212;-85
2022/08/09 02:29:43;;;;;;;0.30;0.30;;;;;;;;;;5093855;28;20205;-86
2022/08/09 02:32:17;;;;;;;0.80;0.80;;;;;;;;;;5079485;28;20199;-85
2022/08/09 02:34:48;;;;;;;0.93;0.93;;;;;;;;;;5076547;28;20259;-86
2022/08/09 02:37:26;;;;;;;0.40;0.40;;;;;;;;;;5094293;28;20240;-85
2022/08/09 02:40:04;;;;;;;0.87;0.87;;;;;;;;;;5076637;28;20237;-86
2022/08/09 02:42:40;;;;;;;0.60;0.60;;;;;;;;;;5076094;28;20215;-86
2022/08/09 02:45:12;;;;;;;0.40;0.40;;;;;;;;;;5085546;28;20200;-86
2022/08/09 02:47:43;;;;;;;0.93;0.93;;;;;;;;;;5072855;28;20208;-85
2022/08/09 02:50:27;;;;;;;0.40;0.40;;;;;;;;;;5076408;28;20205;-86
2022/08/09 02:52:58;;;;;;;0.40;0.40;;;;;;;;;;5086879;28;20201;-86
2022/08/09 02:55:27;;;;;;;0.70;0.70;;;;;;;;;;5069706;28;20200;-85
2022/08/09 02:58:17;;;;;;;1.13;1.13;;;;;;;;;;5076247;28;20211;-85
2022/08/09 03:01:06;;;;;;;0.30;0.30;;;;;;;;;;5059264;28;20449;-86
2022/08/09 03:03:36;;;;;;;1.00;1.00;;;;;;;;;;5072785;28;20255;-86
2022/08/09 03:06:25;;;;;;;1.33;1.33;;;;;;;;;;5066109;28;20209;-86
2022/08/09 03:08:55;;;;;;;0.87;0.87;;;;;;;;;;5060231;28;20195;-86
2022/08/09 03:11:24;;;;;;;0.83;0.83;;;;;;;;;;5093446;28;20250;-86
2022/08/09 03:14:13;;;;;;;0.60;0.60;;;;;;;;;;5056301;28;20209;-86
2022/08/09 03:16:45;;;;;;;0.90;0.90;;;;;;;;;;5069234;28;20210;-86
2022/08/09 03:19:17;;;;;;;1.60;1.50;;;;;;;;;;5071062;28;20207;-86
2022/08/09 03:22:07;;;;;;;1.43;1.33;;;;;;;;;;5087791;28;20217;-86
2022/08/09 03:24:52;;;;;;;2.80;2.13;;;;;;;;;;5088993;28;20242;-86
2022/08/09 03:27:41;;;;;;;2.27;2.07;;;;;;;;;;5075831;28;20204;-86
2022/08/09 03:30:13;;;;;;;0.80;0.80;;;;;;;;;;5075038;28;20274;-86
2022/08/09 03:33:03;;;;;;;2.17;2.00;;;;;;;;;;5071624;28;21099;-86
2022/08/09 03:35:40;;;;;;;0.60;0.60;;;;;;;;;;5092883;28;20223;-86
2022/08/09 03:38:29;;;;;;;0.70;0.70;;;;;;;;;;5055272;28;20229;-86
2022/08/09 03:40:57;;;;;;;1.33;1.33;;;;;;;;;;5087539;28;20209;-86
2022/08/09 03:43:28;;;;;;;0.60;0.60;;;;;;;;;;5075368;28;20184;-86
2022/08/09 03:45:59;;;;;;;1.13;1.13;;;;;;;;;;5074315;28;20200;-86
2022/08/09 03:48:54;;;;;;;0.30;0.30;;;;;;;;;;5075104;28;20258;-86
2022/08/09 03:51:23;;;;;;;0.37;0.37;;;;;;;;;;5076727;28;20193;-86
2022/08/09 03:54:12;;;;;;;0.40;0.40;;;;;;;;;;5092553;28;20334;-86
2022/08/09 03:56:41;;;;;;;1.87;1.73;;;;;;;;;;5075159;28;20204;-86
2022/08/09 03:59:10;;;;;;;0.30;0.30;;;;;;;;;;5072117;28;20272;-86
2022/08/09 04:01:54;;;;;;;0.50;0.50;;;;;;;;;;5067520;28;20289;-86
2022/08/09 04:04:27;;;;;;;0.40;0.40;;;;;;;;;;5080396;28;20278;-86
2022/08/09 04:07:03;;;;;;;1.30;1.27;;;;;;;;;;5061821;28;20266;-86
2022/08/09 04:09:32;;;;;;;0.87;0.87;;;;;;;;;;5065776;28;20202;-86
2022/08/09 04:12:24;;;;;;;0.80;0.80;;;;;;;;;;5068329;28;20200;-86
2022/08/09 04:14:58;;;;;;;1.60;1.37;;;;;;;;;;5086716;28;20214;-86
2022/08/09 04:17:38;;;;;;;0.90;0.80;;;;;;;;;;5072840;28;20200;-86
2022/08/09 04:20:13;;;;;;;1.17;1.17;;;;;;;;;;5073017;28;20201;-86
2022/08/09 04:22:42;;;;;;;5.67;2.07;;;;;;;;;;5074225;28;20217;-85
2022/08/09 04:25:12;;;;;;;0.47;0.47;;;;;;;;;;5072756;28;20193;-86
2022/08/09 04:27:42;;;;;;;0.40;0.40;;;;;;;;;;5082812;28;20201;-86
2022/08/09 04:30:18;;;;;;;0.40;0.40;;;;;;;;;;5070696;28;20201;-86
2022/08/09 04:32:50;;;;;;;0.60;0.60;;;;;;;;;;5056025;28;20208;-86
2022/08/09 04:35:22;;;;;;;0.43;0.43;;;;;;;;;;5072073;28;20209;-86
2022/08/09 04:37:51;;;;;;;0.60;0.60;;;;;;;;;;5070538;28;20231;-86
2022/08/09 04:40:20;;;;;;;0.47;0.47;;;;;;;;;;5071299;28;20212;-86
2022/08/09 04:43:04;;;;;;;0.73;0.73;;;;;;;;;;5070345;28;20213;-86
2022/08/09 04:45:33;;;;;;;0.40;0.40;;;;;;;;;;5091017;28;20209;-86
2022/08/09 04:48:20;;;;;;;0.73;0.73;;;;;;;;;;5080928;28;20196;-86
2022/08/09 04:50:52;;;;;;;1.90;0.83;;;;;;;;;;5089893;28;20200;-86
2022/08/09 04:53:21;;;;;;;0.40;0.40;;;;;;;;;;5085832;28;20250;-86
2022/08/09 04:55:50;;;;;;;0.60;0.60;;;;;;;;;;5075246;28;20204;-86
2022/08/09 04:58:26;;;;;;;0.43;0.43;;;;;;;;;;5067542;28;20198;-86
2022/08/09 05:00:57;;;;;;;0.40;0.40;;;;;;;;;;5073188;28;20246;-86
2022/08/09 05:03:25;;;;;;;1.50;1.50;;;;;;;;;;5075137;28;20240;-86
2022/08/09 05:06:12;;;;;;;0.93;0.93;;;;;;;;;;5068480;28;20206;-86
2022/08/09 05:08:55;;;;;;;0.97;0.97;;;;;;;;;;5089445;28;20190;-86
2022/08/09 05:11:28;;;;;;;0.60;0.60;;;;;;;;;;5069940;28;20258;-86
2022/08/09 05:13:59;;;;;;;0.30;0.30;;;;;;;;;;5059396;28;20259;-87
2022/08/09 05:16:33;;;;;;;0.40;0.40;;;;;;;;;;5071501;28;20208;-86
2022/08/09 05:19:21;;;;;;;0.30;0.30;;;;;;;;;;5094671;28;20204;-86
2022/08/09 05:21:54;;;;;;;0.40;0.40;;;;;;;;;;5095255;28;20198;-86
2022/08/09 05:24:23;;;;;;;0.30;0.30;;;;;;;;;;5073912;28;20293;-86
2022/08/09 05:26:52;;;;;;;1.03;1.03;;;;;;;;;;5062890;28;20203;-86
2022/08/09 05:29:22;;;;;;;0.73;0.73;;;;;;;;;;5065879;28;20196;-86
2022/08/09 05:31:52;;;;;;;1.23;1.23;;;;;;;;;;5088033;28;20199;-86
2022/08/09 05:34:26;;;;;;;0.90;0.90;;;;;;;;;;5064381;28;20202;-86
2022/08/09 05:37:02;;;;;;;1.50;1.40;;;;;;;;;;5074515;28;20257;-86
2022/08/09 05:39:34;;;;;;;1.17;0.77;;;;;;;;;;5060517;28;20205;-85
2022/08/09 05:42:11;;;;;;;1.03;1.03;;;;;;;;;;5095808;28;20211;-86
2022/08/09 05:44:49;;;;;;;1.47;1.37;;;;;;;;;;5074350;28;20338;-86
2022/08/09 05:47:19;;;;;;;3.43;2.40;;;;;;;;;;5067224;28;20205;-86
2022/08/09 05:49:50;;;;;;;1.03;1.03;;;;;;;;;;5087501;28;20201;-86
2022/08/09 05:52:40;;;;;;;1.87;1.50;;;;;;;;;;5095389;28;20197;-86
2022/08/09 05:55:10;;;;;;;1.00;1.00;;;;;;;;;;5070396;28;20204;-86
2022/08/09 05:57:52;;;;;;;2.53;0.60;;;;;;;;;;5055976;28;20308;-84
2022/08/09 06:00:26;;;;;;;1.97;1.87;;;;;;;;;;5081882;28;20300;-85
2022/08/09 06:02:57;;;;;;;0.97;0.97;;;;;;;;;;5093998;28;20300;-86
2022/08/09 06:05:26;;;;;;;3.23;2.13;;;;;;;;;;5076165;28;20209;-86
2022/08/09 06:08:16;;;;;;;3.80;2.97;;;;;;;;;;5076241;28;20256;-86
2022/08/09 06:10:51;;;;;;;2.03;1.90;;;;;;;;;;5088281;28;20218;-85
2022/08/09 06:13:19;;;;;;;2.40;2.00;;;;;;;;;;5087606;28;20193;-85
2022/08/09 06:15:49;;;;;;;4.63;3.13;;;;;;;;;;5061842;28;20199;-84
2022/08/09 06:18:22;;;;;;;2.10;2.00;;;;;;;;;;5059273;28;20198;-84
2022/08/09 06:20:52;;;;;;;2.40;2.20;;;;;;;;;;5073393;28;20202;-84
2022/08/09 06:23:28;;;;;;;2.43;2.20;;;;;;;;;;5056818;28;20211;-84
2022/08/09 06:26:17;;;;;;;0.97;0.93;;;;;;;;;;5070305;28;20201;-84
2022/08/09 06:28:50;;;;;;;1.70;1.60;;;;;;;;;;5077198;28;20207;-84
2022/08/09 06:31:32;;;;;;;1.27;1.17;;;;;;;;;;5090396;28;20206;-85
2022/08/09 06:34:21;;;;;;;3.53;2.07;;;;;;;;;;5070405;28;20232;-85
2022/08/09 06:36:53;;;;;;;2.03;1.93;;;;;;;;;;5072804;28;20199;-85
2022/08/09 06:39:30;;;;;;;1.90;1.80;;;;;;;;;;5059113;28;20293;-85
2022/08/09 06:42:20;;;;;;;1.17;0.93;;;;;;;;;;5081404;28;20199;-85
2022/08/09 06:44:55;;;;;;;1.77;1.53;;;;;;;;;;5049682;28;20206;-85
2022/08/09 06:47:25;;;;;;;0.87;0.87;;;;;;;;;;5102711;28;20211;-84
2022/08/09 06:50:07;;;;;;;6.50;1.33;;;;;;;;;;5073220;28;20210;-85
2022/08/09 06:52:49;;;;;;;1.13;1.07;;;;;;;;;;5093442;28;20279;-85
2022/08/09 06:55:20;;;;;;;4.03;2.97;;;;;;;;;;5072913;28;20251;-84
2022/08/09 06:57:51;;;;;;;0.50;0.50;;;;;;;;;;5075935;28;20219;-85
2022/08/09 07:00:35;;;;;;;0.77;0.77;;;;;;;;;;5076275;28;20203;-86
2022/08/09 07:03:27;;;;;;;1.70;1.07;;;;;;;;;;5072557;28;20221;-85
2022/08/09 07:05:58;;;;;;;4.40;1.63;;;;;;;;;;5072349;28;20211;-85
2022/08/09 07:08:33;;;;;;;5.00;3.20;;;;;;;;;;5067795;28;20208;-85
2022/08/09 07:11:03;;;;;;;2.60;2.07;;;;;;;;;;5072473;28;20209;-85
2022/08/09 07:13:34;;;;;;;1.63;1.53;;;;;;;;;;5091220;28;20197;-85
2022/08/09 07:16:26;;;;;;;5.23;2.57;;;;;;;;;;5063226;28;20287;-83
2022/08/09 07:19:12;;;;;;;3.73;1.80;;;;;;;;;;5061065;28;20219;-85
2022/08/09 07:21:46;;;;;;;4.03;3.10;;;;;;;;;;5068493;28;20293;-85
2022/08/09 07:24:24;;;;;;;1.87;1.70;;;;;;;;;;5059282;28;20224;-86
2022/08/09 07:27:14;;;;;;;2.87;1.43;;;;;;;;;;5061368;28;20219;-83
2022/08/09 07:30:01;;;;;;;1.33;1.23;;;;;;;;;;5057862;28;20248;-85
2022/08/09 07:32:33;;;;;;;2.57;2.10;;;;;;;;;;5057105;28;20210;-86
2022/08/09 07:35:04;;;;;;;7.40;2.10;;;;;;;;;;5076641;28;20218;-83
2022/08/09 07:37:38;;;;;;;3.70;2.50;;;;;;;;;;5056292;28;20293;-84
2022/08/09 07:40:12;;;;;;;3.70;2.07;;;;;;;;;;5059355;28;20251;-85
2022/08/09 07:42:53;;;;;;;1.53;1.43;;;;;;;;;;5054181;28;20247;-85
2022/08/09 07:45:25;;;;;;;3.93;2.20;;;;;;;;;;5057629;28;20265;-84
2022/08/09 07:48:07;;;;;;;1.07;1.03;;;;;;;;;;5055856;28;20216;-83
2022/08/09 07:50:56;;;;;;;2.20;1.50;;;;;;;;;;5055335;28;20235;-85
2022/08/09 07:53:50;;;;;;;1.53;1.33;;;;;;;;;;5051968;28;20269;-85
2022/08/09 07:56:38;;;;;;;1.00;1.00;;;;;;;;;;5053836;28;20220;-84
2022/08/09 07:59:20;;;;;;;2.13;1.40;;;;;;;;;;5077673;28;20247;-85
2022/08/09 08:01:54;;;;;;;1.33;1.23;;;;;;;;;;5049634;28;20418;-86
2022/08/09 08:04:26;;;;;;;3.03;1.03;;;;;;;;;;5069672;28;20226;-85
2022/08/09 08:07:02;;;;;;;6.10;1.40;;;;;;;;;;5056015;28;20228;-85
2022/08/09 08:09:53;;;;;;;3.17;1.77;;;;;;;;;;5049372;28;20221;-85
2022/08/09 08:12:38;;;;;;;1.23;1.13;;;;;;;;;;5053760;28;20252;-84
2022/08/09 08:15:15;;;;;;;2.53;1.20;;;;;;;;;;5057328;28;20228;-85
2022/08/09 08:17:51;;;;;;;1.43;1.33;;;;;;;;;;5052353;28;20228;-84
2022/08/09 08:20:26;;;;;;;0.83;0.83;;;;;;;;;;5080851;28;20208;-87
2022/08/09 08:22:57;;;;;;;1.77;1.67;;;;;;;;;;5070290;28;20203;-85
2022/08/09 08:25:44;;;;;;;1.60;1.50;;;;;;;;;;5045481;28;20217;-87
2022/08/09 08:28:27;;;;;;;3.00;1.10;;;;;;;;;;5077539;28;20206;-89
2022/08/09 08:34:21;;;;;;;1.30;1.00;;;;;;;;;;5069829;28;20232;-88
2022/08/09 08:36:55;;;;;;;1.23;1.23;;;;;;;;;;5072937;28;20202;-87
2022/08/09 08:39:27;;;;;;;0.97;0.97;;;;;;;;;;5069254;28;20204;-87
2022/08/09 08:48:43;;;;;;;0.67;0.67;;;;;;;;;;5067858;28;20228;-88
2022/08/09 08:51:22;;;;;;;0.80;0.80;;;;;;;;;;5067212;28;20236;-87
2022/08/09 08:54:06;;;;;;;0.70;0.70;;;;;;;;;;5064597;28;20204;-87
2022/08/09 08:56:47;;;;;;;1.03;0.97;;;;;;;;;;5065248;28;20212;-88
2022/08/09 08:59:22;;;;;;;1.00;1.00;;;;;;;;;;5074687;28;20206;-87
2022/08/09 09:02:22;;;;;;;1.20;1.03;;;;;;;;;;5069740;28;20221;-88
2022/08/09 09:05:23;;;;;;;1.27;1.17;;;;;;;;;;5071779;28;20273;-88
2022/08/09 09:08:42;;;;;;;1.70;1.67;;;;;;;;;;5062699;28;20309;-86
2022/08/09 09:11:41;;;;;;;1.10;1.00;;;;;;;;;;5077119;28;20197;-87
2022/08/09 09:14:34;;;;;;;0.70;0.70;;;;;;;;;;5074063;28;20223;-88
2022/08/09 09:17:19;;;;;;;0.53;0.53;;;;;;;;;;5073196;28;20206;-88
2022/08/09 09:19:57;;;;;;;0.90;0.90;;;;;;;;;;5081960;28;20208;-88
2022/08/09 09:22:59;;;;;;;0.40;0.40;;;;;;;;;;5076001;28;20278;-87
2022/08/09 09:25:40;;;;;;;0.80;0.80;;;;;;;;;;5059064;28;20307;-88
2022/08/09 09:28:36;;;;;;;0.93;0.80;;;;;;;;;;5066139;28;20194;-87
2022/08/09 09:31:34;;;;;;;1.10;0.90;;;;;;;;;;5065261;28;20198;-85
2022/08/09 09:34:28;;;;;;;0.50;0.50;;;;;;;;;;5066267;28;20202;-86
2022/08/09 09:37:09;;;;;;;0.90;0.90;;;;;;;;;;5071632;28;20258;-88
2022/08/09 09:40:05;;;;;;;1.13;1.03;;;;;;;;;;5062743;28;20259;-88
2022/08/09 09:43:04;;;;;;;0.60;0.60;;;;;;;;;;5068255;28;20201;-87
2022/08/09 09:45:52;;;;;;;1.30;1.20;;;;;;;;;;5069467;28;20220;-89
2022/08/09 09:48:55;;;;;;;0.73;0.73;;;;;;;;;;5067773;28;20201;-87
2022/08/09 09:51:31;;;;;;;0.93;0.93;;;;;;;;;;5056963;28;20206;-88
2022/08/09 09:54:22;;;;;;;0.60;0.60;;;;;;;;;;5051766;28;20217;-85
2022/08/09 09:56:55;;;;;;;0.70;0.70;;;;;;;;;;5056790;28;20267;-86
2022/08/09 09:59:49;;;;;;;2.60;1.47;;;;;;;;;;5062693;28;20212;-86
2022/08/09 10:02:23;;;;;;;3.77;1.30;;;;;;;;;;5073014;28;20201;-84
2022/08/09 10:05:07;;;;;;;0.90;0.90;;;;;;;;;;5068993;28;20213;-86
2022/08/09 10:07:44;;;;;;;3.57;0.80;;;;;;;;;;5065464;28;20259;-87
2022/08/09 10:10:30;;;;;;;0.50;0.50;;;;;;;;;;5054613;28;20201;-86
2022/08/09 10:13:03;;;;;;;0.50;0.50;;;;;;;;;;5070409;28;20231;-86
2022/08/09 10:15:47;;;;;;;0.70;0.70;;;;;;;;;;5062602;28;20231;-87
2022/08/09 10:18:54;;;;;;;0.63;0.60;;;;;;;;;;5057167;28;20252;-87
2022/08/09 10:21:55;;;;;;;0.60;0.57;;;;;;;;;;5070214;28;20293;-87
2022/08/09 10:27:20;;;;;;;1.43;0.80;;;;;;;;;;5070274;28;20203;-87
2022/08/09 10:30:05;;;;;;;0.60;0.60;;;;;;;;;;5074875;28;20197;-87
2022/08/09 10:32:54;;;;;;;0.47;0.47;;;;;;;;;;5062854;28;20204;-86
2022/08/09 10:35:45;;;;;;;0.50;0.50;;;;;;;;;;5061386;28;20212;-88
2022/08/09 10:38:17;;;;;;;1.33;1.00;;;;;;;;;;5069585;28;20234;-87
2022/08/09 10:41:11;;;;;;;0.40;0.40;;;;;;;;;;5062815;28;20294;-87
2022/08/09 10:43:44;;;;;;;1.03;0.80;;;;;;;;;;5070125;28;20255;-87
2022/08/09 10:46:39;;;;;;;0.30;0.30;;;;;;;;;;5089665;28;20206;-87
2022/08/09 10:49:32;;;;;;;1.30;1.03;;;;;;;;;;5087759;28;20202;-87
2022/08/09 10:52:47;;;;;;;0.67;0.60;;;;;;;;;;5086563;28;20210;-87
2022/08/09 10:55:27;;;;;;;0.73;0.73;;;;;;;;;;5071775;28;20196;-86
2022/08/09 10:58:33;;;;;;;0.60;0.60;;;;;;;;;;5074713;28;20200;-87
2022/08/09 11:01:20;;;;;;;0.93;0.93;;;;;;;;;;5071302;28;20202;-87
2022/08/09 11:04:19;;;;;;;2.97;0.80;;;;;;;;;;5026225;28;20206;-87
2022/08/09 11:07:20;;;;;;;4.63;0.87;;;;;;;;;;5062527;28;20221;-87
2022/08/09 11:10:20;;;;;;;1.03;0.70;;;;;;;;;;5081252;28;20197;-87
2022/08/09 11:13:34;;;;;;;0.70;0.70;;;;;;;;;;5065465;28;20203;-87
2022/08/09 11:16:38;;;;;;;0.40;0.40;;;;;;;;;;5048250;28;20206;-88
2022/08/09 11:19:13;;;;;;;0.50;0.50;;;;;;;;;;5079450;28;20216;-87
2022/08/09 11:22:16;;;;;;;0.43;0.43;;;;;;;;;;5075714;28;20639;-87
2022/08/09 11:25:16;;;;;;;0.70;0.60;;;;;;;;;;5063464;28;20218;-87
2022/08/09 11:27:52;;;;;;;1.03;0.93;;;;;;;;;;5061226;28;20206;-87
2022/08/09 11:31:28;;;;;;;0.30;0.30;;;;;;;;;;5057639;28;20198;-87
2022/08/09 11:34:07;;;;;;;0.70;0.70;;;;;;;;;;5058873;28;20200;-86
2022/08/09 11:36:44;;;;;;;0.40;0.40;;;;;;;;;;5067586;28;20203;-88
2022/08/09 11:39:20;;;;;;;0.60;0.60;;;;;;;;;;5052690;28;20284;-87
2022/08/09 11:41:55;;;;;;;0.93;0.93;;;;;;;;;;5046104;28;20254;-88
2022/08/09 11:44:48;;;;;;;2.53;0.80;;;;;;;;;;5052452;28;20236;-87
2022/08/09 11:47:40;;;;;;;0.57;0.57;;;;;;;;;;5047970;28;20261;-90
2022/08/09 11:59:28;;;;;;;0.57;0.57;;;;;;;;;;5063736;28;20205;-89
2022/08/09 12:02:03;;;;;;;0.87;0.60;;;;;;;;;;5041720;28;20210;-87
2022/08/09 12:04:55;;;;;;;0.90;0.80;;;;;;;;;;5047162;28;20208;-87
2022/08/09 12:07:39;;;;;;;0.37;0.37;;;;;;;;;;5039186;28;20226;-88
2022/08/09 12:10:23;;;;;;;0.40;0.40;;;;;;;;;;5058692;28;20279;-86
2022/08/09 12:13:11;;;;;;;0.80;0.80;;;;;;;;;;5060263;28;20200;-85
2022/08/09 12:16:05;;;;;;;0.77;0.77;;;;;;;;;;5050446;28;20279;-87
2022/08/09 12:19:31;;;;;;;0.80;0.80;;;;;;;;;;5043447;28;20233;-87
2022/08/09 12:22:11;;;;;;;0.83;0.80;;;;;;;;;;5037849;28;20209;-85
2022/08/09 12:24:44;;;;;;;0.77;0.77;;;;;;;;;;5048210;28;20213;-85
2022/08/09 12:27:21;;;;;;;1.60;1.20;;;;;;;;;;5042931;28;20239;-84
2022/08/09 12:30:11;;;;;;;0.70;0.70;;;;;;;;;;5036860;28;20213;-85
2022/08/09 12:33:04;;;;;;;1.20;1.20;;;;;;;;;;5057738;28;20217;-85
2022/08/09 12:35:53;;;;;;;1.83;0.47;;;;;;;;;;5051708;28;20232;-88
2022/08/09 12:38:52;;;;;;;1.23;1.13;;;;;;;;;;5060211;28;20236;-87
2022/08/09 12:41:25;;;;;;;0.80;0.80;;;;;;;;;;5050906;28;20204;-86
2022/08/09 12:43:55;;;;;;;1.13;0.70;;;;;;;;;;5054577;28;20226;-84
2022/08/09 12:46:35;;;;;;;0.70;0.70;;;;;;;;;;5056615;28;20307;-86
2022/08/09 12:49:06;;;;;;;0.30;0.30;;;;;;;;;;5066994;28;20224;-85
2022/08/09 12:51:35;;;;;;;1.37;0.80;;;;;;;;;;5064801;28;20201;-85
2022/08/09 12:54:29;;;;;;;0.63;0.63;;;;;;;;;;5059562;28;20196;-86
2022/08/09 12:57:03;;;;;;;1.20;0.53;;;;;;;;;;5063776;28;20193;-86
2022/08/09 12:59:32;;;;;;;0.93;0.67;;;;;;;;;;5054977;28;20206;-85
2022/08/09 13:02:30;;;;;;;1.13;0.60;;;;;;;;;;5062042;28;20220;-88
2022/08/09 13:05:00;;;;;;;0.30;0.30;;;;;;;;;;5063632;28;20231;-86
2022/08/09 13:07:35;;;;;;;0.40;0.40;;;;;;;;;;5063103;28;20228;-87
2022/08/09 13:10:20;;;;;;;0.60;0.60;;;;;;;;;;5078411;28;20227;-88
2022/08/09 13:12:59;;;;;;;0.60;0.50;;;;;;;;;;5062134;28;20267;-88
2022/08/09 13:15:53;;;;;;;0.50;0.50;;;;;;;;;;5054089;28;20321;-87
2022/08/09 13:18:28;;;;;;;0.60;0.60;;;;;;;;;;5074712;28;20283;-86
2022/08/09 13:21:28;;;;;;;2.87;0.90;;;;;;;;;;5060782;28;20270;-86
2022/08/09 13:24:35;;;;;;;1.80;0.90;;;;;;;;;;5066629;28;20200;-83
2022/08/09 13:27:47;;;;;;;0.57;0.57;;;;;;;;;;5065277;28;20211;-87
2022/08/09 13:30:28;;;;;;;0.30;0.30;;;;;;;;;;5076027;28;20237;-85
2022/08/09 13:33:24;;;;;;;1.13;0.50;;;;;;;;;;5067892;28;20198;-86
2022/08/09 13:36:14;;;;;;;1.00;0.93;;;;;;;;;;5063366;28;20232;-86
2022/08/09 13:39:03;;;;;;;0.70;0.70;;;;;;;;;;5080743;28;20225;-87
2022/08/09 13:42:01;;;;;;;0.80;0.70;;;;;;;;;;5063141;28;20206;-85
2022/08/09 13:44:37;;;;;;;0.37;0.37;;;;;;;;;;5076549;28;20239;-85
2022/08/09 13:47:13;;;;;;;0.57;0.57;;;;;;;;;;5091016;28;20214;-84
2022/08/09 13:50:23;;;;;;;0.90;0.60;;;;;;;;;;5089697;28;20232;-85
2022/08/09 13:53:15;;;;;;;0.83;0.77;;;;;;;;;;5062113;28;20220;-85
2022/08/09 13:56:14;;;;;;;0.30;0.30;;;;;;;;;;5067214;28;20243;-84
2022/08/09 13:58:55;;;;;;;0.50;0.50;;;;;;;;;;5070523;28;20271;-85
2022/08/09 14:01:46;;;;;;;6.03;1.70;;;;;;;;;;5071833;28;20275;-84
2022/08/09 14:07:50;;;;;;;0.50;0.50;;;;;;;;;;5067230;28;20288;-86
2022/08/09 14:10:28;;;;;;;4.60;1.27;;;;;;;;;;5064196;28;20198;-85
2022/08/09 14:13:16;;;;;;;2.00;0.97;;;;;;;;;;5073641;28;20233;-85
2022/08/09 14:16:05;;;;;;;0.63;0.63;;;;;;;;;;5061569;28;20205;-85
2022/08/09 14:18:41;;;;;;;0.40;0.40;;;;;;;;;;5065845;28;20300;-87
2022/08/09 14:21:17;;;;;;;0.80;0.60;;;;;;;;;;5067150;28;20351;-86
2022/08/09 14:23:48;;;;;;;0.63;0.60;;;;;;;;;;5080085;28;20231;-84
2022/08/09 14:26:24;;;;;;;1.17;1.17;;;;;;;;;;5061637;28;20238;-83
2022/08/09 14:29:01;;;;;;;2.70;2.60;;;;;;;;;;5056866;28;20197;-84
2022/08/09 14:31:30;;;;;;;0.77;0.77;;;;;;;;;;5058091;28;20210;-84
2022/08/09 14:34:32;;;;;;;0.40;0.40;;;;;;;;;;5063980;28;20323;-84
2022/08/09 14:37:04;;;;;;;0.30;0.30;;;;;;;;;;5059817;28;20199;-84
2022/08/09 14:39:35;;;;;;;1.00;1.00;;;;;;;;;;5072480;28;20202;-82
2022/08/09 14:42:15;;;;;;;0.60;0.60;;;;;;;;;;5085449;28;20256;-82
2022/08/09 14:45:01;;;;;;;0.50;0.50;;;;;;;;;;5080682;28;20259;-83
2022/08/09 14:47:49;;;;;;;0.80;0.80;;;;;;;;;;5057299;28;20213;-83
2022/08/09 14:50:27;;;;;;;0.80;0.80;;;;;;;;;;5065076;28;20205;-83
2022/08/09 14:52:57;;;;;;;0.70;0.70;;;;;;;;;;5075778;28;20211;-83
2022/08/09 14:55:25;;;;;;;1.00;0.73;;;;;;;;;;5060040;28;20220;-83
2022/08/09 14:57:59;;;;;;;0.70;0.70;;;;;;;;;;5065790;28;20193;-83
2022/08/09 15:00:30;;;;;;;0.80;0.80;;;;;;;;;;5062058;28;20208;-84
2022/08/09 15:02:59;;;;;;;0.73;0.70;;;;;;;;;;5072132;28;20212;-84
2022/08/09 15:05:27;;;;;;;0.30;0.30;;;;;;;;;;5060374;28;20206;-83
2022/08/09 15:07:58;;;;;;;1.20;0.97;;;;;;;;;;5066982;28;20267;-84
2022/08/09 15:10:28;;;;;;;0.90;0.90;;;;;;;;;;5061525;28;20198;-84
2022/08/09 15:12:59;;;;;;;0.87;0.87;;;;;;;;;;5059867;28;20204;-84
2022/08/09 15:15:31;;;;;;;0.73;0.73;;;;;;;;;;5082826;28;20210;-84
2022/08/09 15:18:06;;;;;;;1.30;1.20;;;;;;;;;;5059974;28;20194;-84
2022/08/09 15:20:42;;;;;;;2.10;1.10;;;;;;;;;;5077892;28;20206;-84
2022/08/09 15:23:32;;;;;;;0.60;0.60;;;;;;;;;;5064468;28;20209;-84
2022/08/09 15:26:21;;;;;;;1.07;0.97;;;;;;;;;;5065361;28;20275;-84
2022/08/09 15:28:59;;;;;;;0.53;0.53;;;;;;;;;;5045432;28;20220;-84
2022/08/09 15:31:32;;;;;;;2.30;0.90;;;;;;;;;;5075084;28;20223;-84
2022/08/09 15:34:09;;;;;;;0.90;0.90;;;;;;;;;;5078747;28;20287;-84
2022/08/09 15:36:58;;;;;;;1.53;1.10;;;;;;;;;;5062232;28;20204;-83
2022/08/09 15:39:29;;;;;;;0.80;0.80;;;;;;;;;;5071911;28;20209;-84
2022/08/09 15:42:17;;;;;;;1.00;0.80;;;;;;;;;;5043106;28;20197;-84
2022/08/09 15:44:52;;;;;;;1.87;1.10;;;;;;;;;;5067487;28;20257;-84
2022/08/09 15:47:21;;;;;;;0.70;0.60;;;;;;;;;;5085124;28;20207;-84
2022/08/09 15:50:11;;;;;;;0.43;0.43;;;;;;;;;;5075097;28;20211;-83
2022/08/09 15:52:41;;;;;;;0.57;0.57;;;;;;;;;;5084623;28;20217;-83
2022/08/09 15:55:23;;;;;;;0.73;0.47;;;;;;;;;;5058030;28;20191;-81
2022/08/09 15:57:52;;;;;;;0.93;0.70;;;;;;;;;;5079574;28;20197;-81
2022/08/09 16:00:22;;;;;;;0.63;0.63;;;;;;;;;;5065805;28;20242;-81
2022/08/09 16:02:53;;;;;;;1.33;0.80;;;;;;;;;;5080241;28;20207;-81
2022/08/09 16:05:25;;;;;;;1.03;0.90;;;;;;;;;;5073082;28;20270;-81
2022/08/09 16:08:13;;;;;;;6.87;2.10;;;;;;;;;;5063463;28;20241;-81
2022/08/09 16:11:00;;;;;;;1.53;1.13;;;;;;;;;;5064579;28;20209;-81
2022/08/09 16:13:29;;;;;;;1.20;0.80;;;;;;;;;;5087571;28;20204;-81
2022/08/09 16:16:18;;;;;;;3.17;1.27;;;;;;;;;;5092841;28;20250;-81
2022/08/09 16:18:46;;;;;;;2.83;1.00;;;;;;;;;;5074771;28;20258;-81
2022/08/09 16:21:15;;;;;;;0.60;0.60;;;;;;;;;;5083714;28;20261;-81
2022/08/09 16:23:52;;;;;;;1.03;1.00;;;;;;;;;;5086186;28;20200;-81
2022/08/09 16:26:27;;;;;;;0.50;0.50;;;;;;;;;;5075185;28;20202;-81
2022/08/09 16:29:04;;;;;;;5.07;0.90;;;;;;;;;;5073774;28;20224;-81